DAL19 KATL-KMSY
Flight info
| Callsign | DAL19 |
|---|---|
| Flight time | 1h 16m |
| Altitude | 32000 |
| Route | POUNC2 GRGIA SJI MNSTR1 |
| Aircraft | A321/M-SDE3FGHIRWY/LB1 |
Departure
| Time | 2026-05-01 13:30 |
|---|---|
| Airport | Hartsfield Jackson Atlanta International Airport (KATL) |
Arrival
| Time | 2026-05-01 14:47 |
|---|---|
| Airport | Louis Armstrong New Orleans International Airport (KMSY) |
| Time | Latitude | Longitude | Altitude | Speed | Heading |
|---|---|---|---|---|---|
| 2026-05-01 12:35 | 33.63845 | -84.43968 | 1036 ft | 0 kts | 90° |
| 2026-05-01 13:11 | 33.63845 | -84.43976 | 1035 ft | 4 kts | 90° |
| 2026-05-01 13:11 | 33.63845 | -84.44008 | 1035 ft | 4 kts | 84° |
| 2026-05-01 13:11 | 33.63838 | -84.44037 | 1035 ft | 4 kts | 48° |
| 2026-05-01 13:12 | 33.63818 | -84.44051 | 1035 ft | 3 kts | 1° |
| 2026-05-01 13:12 | 33.63816 | -84.44052 | 1035 ft | 0 kts | 360° |
| 2026-05-01 13:16 | 33.63817 | -84.44052 | 1035 ft | 1 kts | 360° |
| 2026-05-01 13:16 | 33.63836 | -84.44052 | 1035 ft | 4 kts | 360° |
| 2026-05-01 13:16 | 33.63873 | -84.44052 | 1035 ft | 7 kts | 360° |
| 2026-05-01 13:17 | 33.64037 | -84.44052 | 1035 ft | 7 kts | 0° |
| 2026-05-01 13:17 | 33.64081 | -84.44051 | 1035 ft | 6 kts | 0° |
| 2026-05-01 13:18 | 33.64152 | -84.44051 | 1035 ft | 4 kts | 0° |
| 2026-05-01 13:18 | 33.64178 | -84.44051 | 1035 ft | 3 kts | 360° |
| 2026-05-01 13:18 | 33.64197 | -84.44051 | 1035 ft | 2 kts | 359° |
| 2026-05-01 13:18 | 33.64210 | -84.44051 | 1035 ft | 1 kts | 359° |
| 2026-05-01 13:19 | 33.64215 | -84.44052 | 1035 ft | 0 kts | 359° |
| 2026-05-01 13:19 | 33.64216 | -84.44052 | 1035 ft | 0 kts | 359° |
| 2026-05-01 13:19 | 33.64232 | -84.44052 | 1035 ft | 3 kts | 360° |
| 2026-05-01 13:20 | 33.64262 | -84.44052 | 1035 ft | 6 kts | 360° |
| 2026-05-01 13:20 | 33.64310 | -84.44052 | 1035 ft | 8 kts | 0° |
| 2026-05-01 13:20 | 33.64362 | -84.44051 | 1035 ft | 1 kts | 360° |
| 2026-05-01 13:23 | 33.64366 | -84.44051 | 1035 ft | 2 kts | 0° |
| 2026-05-01 13:24 | 33.64385 | -84.44048 | 1035 ft | 4 kts | 13° |
| 2026-05-01 13:24 | 33.64415 | -84.44024 | 1035 ft | 7 kts | 49° |
| 2026-05-01 13:24 | 33.64431 | -84.43961 | 1035 ft | 9 kts | 81° |
| 2026-05-01 13:25 | 33.64471 | -84.43827 | 1035 ft | 10 kts | 26° |
| 2026-05-01 13:25 | 33.64532 | -84.43822 | 1035 ft | 8 kts | 360° |
| 2026-05-01 13:25 | 33.64578 | -84.43822 | 1035 ft | 1 kts | 359° |
| 2026-05-01 13:28 | 33.64579 | -84.43822 | 1035 ft | 1 kts | 359° |
| 2026-05-01 13:28 | 33.64608 | -84.43823 | 1035 ft | 9 kts | 360° |
| 2026-05-01 13:29 | 33.64680 | -84.43746 | 1035 ft | 10 kts | 90° |
| 2026-05-01 13:29 | 33.64677 | -84.42725 | 1035 ft | 123 kts | 90° |
| 2026-05-01 13:30 | 33.64840 | -84.37272 | 2842 ft | 174 kts | 75° |
| 2026-05-01 13:31 | 33.65935 | -84.34303 | 3089 ft | 216 kts | 66° |
| 2026-05-01 13:31 | 33.68246 | -84.28782 | 4293 ft | 267 kts | 40° |
| 2026-05-01 13:32 | 33.71749 | -84.27551 | 5592 ft | 271 kts | 358° |
| 2026-05-01 13:33 | 33.77493 | -84.27853 | 7768 ft | 279 kts | 350° |
| 2026-05-01 13:33 | 33.80650 | -84.30185 | 9120 ft | 273 kts | 299° |
| 2026-05-01 13:34 | 33.81350 | -84.34569 | 10502 ft | 272 kts | 270° |
| 2026-05-01 13:34 | 33.81386 | -84.39340 | 11071 ft | 306 kts | 270° |
| 2026-05-01 13:35 | 33.81422 | -84.44757 | 11359 ft | 339 kts | 270° |
| 2026-05-01 13:35 | 33.81449 | -84.47635 | 11813 ft | 347 kts | 270° |
| 2026-05-01 13:35 | 33.80783 | -84.53374 | 13073 ft | 352 kts | 249° |
| 2026-05-01 13:36 | 33.79571 | -84.55954 | 13708 ft | 356 kts | 237° |
| 2026-05-01 13:36 | 33.78174 | -84.58372 | 14289 ft | 357 kts | 238° |
| 2026-05-01 13:36 | 33.75327 | -84.63332 | 15476 ft | 358 kts | 239° |
| 2026-05-01 13:37 | 33.73914 | -84.65800 | 16042 ft | 359 kts | 240° |
| 2026-05-01 13:37 | 33.72977 | -84.67438 | 16416 ft | 359 kts | 240° |
| 2026-05-01 13:37 | 33.71102 | -84.70715 | 17191 ft | 359 kts | 241° |
| 2026-05-01 13:37 | 33.69683 | -84.73188 | 17750 ft | 360 kts | 241° |
| 2026-05-01 13:38 | 33.66824 | -84.78146 | 18781 ft | 361 kts | 242° |
| 2026-05-01 13:38 | 33.65398 | -84.80624 | 19232 ft | 362 kts | 242° |
| 2026-05-01 13:38 | 33.63968 | -84.83112 | 19684 ft | 362 kts | 242° |
| 2026-05-01 13:39 | 33.62537 | -84.85601 | 20123 ft | 363 kts | 242° |
| 2026-05-01 13:39 | 33.61101 | -84.88095 | 20554 ft | 364 kts | 242° |
| 2026-05-01 13:39 | 33.59655 | -84.90596 | 20984 ft | 365 kts | 242° |
| 2026-05-01 13:39 | 33.58203 | -84.93105 | 21452 ft | 366 kts | 242° |
| 2026-05-01 13:40 | 33.56752 | -84.95618 | 21851 ft | 367 kts | 242° |
| 2026-05-01 13:40 | 33.55295 | -84.98137 | 22269 ft | 368 kts | 242° |
| 2026-05-01 13:40 | 33.53834 | -85.00662 | 22667 ft | 369 kts | 242° |
| 2026-05-01 13:40 | 33.52363 | -85.03199 | 23061 ft | 371 kts | 242° |
| 2026-05-01 13:41 | 33.50887 | -85.05744 | 23464 ft | 372 kts | 242° |
| 2026-05-01 13:41 | 33.49424 | -85.08263 | 23799 ft | 374 kts | 242° |
| 2026-05-01 13:41 | 33.47940 | -85.10823 | 24101 ft | 375 kts | 242° |
| 2026-05-01 13:41 | 33.46448 | -85.13391 | 24406 ft | 377 kts | 242° |
| 2026-05-01 13:42 | 33.44945 | -85.15971 | 24717 ft | 378 kts | 242° |
| 2026-05-01 13:42 | 33.43438 | -85.18554 | 25018 ft | 380 kts | 242° |
| 2026-05-01 13:42 | 33.42095 | -85.21252 | 25294 ft | 375 kts | 250° |
| 2026-05-01 13:42 | 33.41202 | -85.24170 | 25564 ft | 373 kts | 257° |
| 2026-05-01 13:43 | 33.40477 | -85.27152 | 25846 ft | 375 kts | 257° |
| 2026-05-01 13:43 | 33.39983 | -85.29176 | 26037 ft | 375 kts | 257° |
| 2026-05-01 13:43 | 33.39254 | -85.32140 | 26284 ft | 377 kts | 256° |
| 2026-05-01 13:43 | 33.38506 | -85.35157 | 26576 ft | 379 kts | 256° |
| 2026-05-01 13:44 | 33.37754 | -85.38182 | 26856 ft | 379 kts | 256° |
| 2026-05-01 13:44 | 33.37003 | -85.41218 | 27114 ft | 382 kts | 256° |
| 2026-05-01 13:44 | 33.36240 | -85.44271 | 27367 ft | 384 kts | 256° |
| 2026-05-01 13:44 | 33.35474 | -85.47343 | 27599 ft | 386 kts | 256° |
| 2026-05-01 13:45 | 33.34709 | -85.50423 | 27923 ft | 386 kts | 256° |
| 2026-05-01 13:45 | 33.33946 | -85.53494 | 28284 ft | 385 kts | 256° |
| 2026-05-01 13:45 | 33.33184 | -85.56559 | 28649 ft | 383 kts | 256° |
| 2026-05-01 13:45 | 33.32419 | -85.59613 | 28995 ft | 382 kts | 256° |
| 2026-05-01 13:46 | 33.31664 | -85.62652 | 29313 ft | 382 kts | 256° |
| 2026-05-01 13:46 | 33.30909 | -85.65685 | 29624 ft | 379 kts | 255° |
| 2026-05-01 13:46 | 33.30155 | -85.68705 | 29917 ft | 380 kts | 256° |
| 2026-05-01 13:46 | 33.29396 | -85.71729 | 30204 ft | 379 kts | 256° |
| 2026-05-01 13:47 | 33.28637 | -85.74746 | 30497 ft | 379 kts | 256° |
| 2026-05-01 13:47 | 33.27881 | -85.77752 | 30804 ft | 376 kts | 256° |
| 2026-05-01 13:47 | 33.27129 | -85.80741 | 31129 ft | 375 kts | 256° |
| 2026-05-01 13:47 | 33.26381 | -85.83713 | 31452 ft | 373 kts | 256° |
| 2026-05-01 13:48 | 33.25632 | -85.86671 | 31778 ft | 371 kts | 256° |
| 2026-05-01 13:48 | 33.24884 | -85.89620 | 31974 ft | 371 kts | 257° |
| 2026-05-01 13:48 | 33.24143 | -85.92549 | 32014 ft | 365 kts | 257° |
| 2026-05-01 13:49 | 33.22686 | -85.98324 | 32020 ft | 362 kts | 257° |
| 2026-05-01 13:49 | 33.21235 | -86.04082 | 32018 ft | 362 kts | 257° |
| 2026-05-01 13:50 | 33.19772 | -86.09833 | 32014 ft | 362 kts | 257° |
| 2026-05-01 13:50 | 33.18303 | -86.15579 | 32013 ft | 362 kts | 256° |
| 2026-05-01 13:51 | 33.16831 | -86.21316 | 32014 ft | 361 kts | 256° |
| 2026-05-01 13:51 | 33.15373 | -86.27061 | 32062 ft | 362 kts | 256° |
| 2026-05-01 13:52 | 33.13903 | -86.32799 | 32060 ft | 362 kts | 256° |
| 2026-05-01 13:52 | 33.12427 | -86.38538 | 32060 ft | 362 kts | 256° |
| 2026-05-01 13:53 | 33.10963 | -86.44244 | 32053 ft | 362 kts | 256° |
| 2026-05-01 13:53 | 33.08715 | -86.52836 | 32008 ft | 364 kts | 252° |
| 2026-05-01 13:54 | 33.05894 | -86.57949 | 32013 ft | 382 kts | 231° |
| 2026-05-01 13:54 | 33.03768 | -86.59922 | 32000 ft | 393 kts | 223° |
| 2026-05-01 13:54 | 33.01478 | -86.61710 | 32001 ft | 393 kts | 223° |
| 2026-05-01 13:55 | 32.96901 | -86.65283 | 32002 ft | 394 kts | 223° |
| 2026-05-01 13:55 | 32.92331 | -86.68867 | 32003 ft | 393 kts | 223° |
| 2026-05-01 13:56 | 32.87754 | -86.72454 | 31997 ft | 395 kts | 223° |
| 2026-05-01 13:56 | 32.83168 | -86.76040 | 31979 ft | 394 kts | 223° |
| 2026-05-01 13:57 | 32.78579 | -86.79618 | 31961 ft | 395 kts | 223° |
| 2026-05-01 13:57 | 32.73988 | -86.83192 | 31970 ft | 394 kts | 223° |
| 2026-05-01 13:58 | 32.69404 | -86.86761 | 31973 ft | 394 kts | 223° |
| 2026-05-01 13:58 | 32.64817 | -86.90327 | 31960 ft | 394 kts | 223° |
| 2026-05-01 13:59 | 32.60231 | -86.93880 | 31960 ft | 394 kts | 223° |
| 2026-05-01 13:59 | 32.55638 | -86.97442 | 31946 ft | 397 kts | 223° |
| 2026-05-01 14:00 | 32.51001 | -87.01053 | 31945 ft | 400 kts | 223° |
| 2026-05-01 14:00 | 32.46343 | -87.04661 | 31942 ft | 400 kts | 223° |
| 2026-05-01 14:01 | 32.41676 | -87.08257 | 31948 ft | 400 kts | 223° |
| 2026-05-01 14:01 | 32.37015 | -87.11843 | 31963 ft | 399 kts | 223° |
| 2026-05-01 14:02 | 32.32393 | -87.15406 | 32014 ft | 399 kts | 223° |
| 2026-05-01 14:02 | 32.27724 | -87.19010 | 31927 ft | 403 kts | 222° |
| 2026-05-01 14:03 | 32.23010 | -87.22616 | 31928 ft | 404 kts | 221° |
| 2026-05-01 14:03 | 32.18291 | -87.26224 | 31939 ft | 404 kts | 221° |
| 2026-05-01 14:04 | 32.13577 | -87.29840 | 31939 ft | 403 kts | 221° |
| 2026-05-01 14:04 | 32.09662 | -87.32833 | 31942 ft | 404 kts | 221° |
| 2026-05-01 14:05 | 32.04154 | -87.37037 | 31937 ft | 403 kts | 221° |
| 2026-05-01 14:05 | 31.99456 | -87.40628 | 31966 ft | 402 kts | 221° |
| 2026-05-01 14:06 | 31.94769 | -87.44220 | 31972 ft | 402 kts | 221° |
| 2026-05-01 14:06 | 31.90083 | -87.47799 | 31987 ft | 402 kts | 221° |
| 2026-05-01 14:07 | 31.85382 | -87.51374 | 31990 ft | 402 kts | 220° |
| 2026-05-01 14:08 | 31.78354 | -87.56690 | 32001 ft | 403 kts | 220° |
| 2026-05-01 14:08 | 31.73649 | -87.60267 | 31977 ft | 403 kts | 220° |
| 2026-05-01 14:09 | 31.68937 | -87.63855 | 31982 ft | 404 kts | 220° |
| 2026-05-01 14:09 | 31.64207 | -87.67428 | 31983 ft | 405 kts | 220° |
| 2026-05-01 14:10 | 31.59466 | -87.71009 | 31995 ft | 405 kts | 220° |
| 2026-05-01 14:10 | 31.54725 | -87.74589 | 31996 ft | 405 kts | 219° |
| 2026-05-01 14:11 | 31.49993 | -87.78167 | 31959 ft | 405 kts | 219° |
| 2026-05-01 14:11 | 31.42911 | -87.83503 | 31971 ft | 406 kts | 219° |
| 2026-05-01 14:12 | 31.38136 | -87.87083 | 31983 ft | 408 kts | 219° |
| 2026-05-01 14:12 | 31.33350 | -87.90671 | 31984 ft | 409 kts | 219° |
| 2026-05-01 14:13 | 31.29334 | -87.93683 | 31986 ft | 409 kts | 219° |
| 2026-05-01 14:13 | 31.23776 | -87.97851 | 31989 ft | 409 kts | 219° |
| 2026-05-01 14:14 | 31.18977 | -88.01448 | 31993 ft | 411 kts | 218° |
| 2026-05-01 14:14 | 31.14164 | -88.05046 | 31994 ft | 411 kts | 218° |
| 2026-05-01 14:15 | 31.09340 | -88.08645 | 31999 ft | 411 kts | 218° |
| 2026-05-01 14:15 | 31.04527 | -88.12233 | 31998 ft | 410 kts | 218° |
| 2026-05-01 14:16 | 30.99723 | -88.15811 | 31994 ft | 410 kts | 218° |
| 2026-05-01 14:16 | 30.94915 | -88.19391 | 31988 ft | 410 kts | 218° |
| 2026-05-01 14:17 | 30.90103 | -88.22964 | 31964 ft | 410 kts | 217° |
| 2026-05-01 14:17 | 30.85275 | -88.26544 | 32005 ft | 412 kts | 217° |
| 2026-05-01 14:18 | 30.80469 | -88.30101 | 32005 ft | 412 kts | 217° |
| 2026-05-01 14:18 | 30.76410 | -88.33100 | 32006 ft | 412 kts | 218° |
| 2026-05-01 14:19 | 30.73468 | -88.35816 | 32000 ft | 405 kts | 229° |
| 2026-05-01 14:19 | 30.71679 | -88.38324 | 32005 ft | 402 kts | 238° |
| 2026-05-01 14:19 | 30.69065 | -88.44010 | 32000 ft | 397 kts | 244° |
| 2026-05-01 14:20 | 30.65278 | -88.52586 | 31992 ft | 398 kts | 244° |
| 2026-05-01 14:21 | 30.62735 | -88.58308 | 31995 ft | 400 kts | 244° |
| 2026-05-01 14:21 | 30.60180 | -88.64062 | 31767 ft | 402 kts | 244° |
| 2026-05-01 14:22 | 30.57590 | -88.69819 | 31194 ft | 403 kts | 244° |
| 2026-05-01 14:22 | 30.56289 | -88.72722 | 30211 ft | 410 kts | 244° |
| 2026-05-01 14:22 | 30.54965 | -88.75697 | 29083 ft | 418 kts | 244° |
| 2026-05-01 14:22 | 30.53628 | -88.78708 | 28042 ft | 422 kts | 244° |
| 2026-05-01 14:23 | 30.52285 | -88.81728 | 27355 ft | 419 kts | 244° |
| 2026-05-01 14:23 | 30.50950 | -88.84722 | 26639 ft | 417 kts | 245° |
| 2026-05-01 14:23 | 30.49619 | -88.87702 | 25928 ft | 415 kts | 245° |
| 2026-05-01 14:23 | 30.48294 | -88.90669 | 25204 ft | 414 kts | 245° |
| 2026-05-01 14:24 | 30.46972 | -88.93628 | 24489 ft | 413 kts | 245° |
| 2026-05-01 14:24 | 30.45650 | -88.96584 | 23776 ft | 413 kts | 245° |
| 2026-05-01 14:24 | 30.44332 | -88.99529 | 23007 ft | 411 kts | 245° |
| 2026-05-01 14:24 | 30.43021 | -89.02441 | 22346 ft | 404 kts | 245° |
| 2026-05-01 14:25 | 30.41727 | -89.05312 | 21694 ft | 399 kts | 245° |
| 2026-05-01 14:25 | 30.40459 | -89.08147 | 21089 ft | 394 kts | 246° |
| 2026-05-01 14:25 | 30.39295 | -89.11002 | 20456 ft | 389 kts | 248° |
| 2026-05-01 14:25 | 30.38244 | -89.13849 | 19872 ft | 382 kts | 250° |
| 2026-05-01 14:26 | 30.37252 | -89.16685 | 19297 ft | 376 kts | 250° |
| 2026-05-01 14:26 | 30.35322 | -89.22214 | 18192 ft | 366 kts | 250° |
| 2026-05-01 14:26 | 30.34352 | -89.24912 | 17694 ft | 359 kts | 248° |
| 2026-05-01 14:27 | 30.33385 | -89.27547 | 17202 ft | 352 kts | 248° |
| 2026-05-01 14:27 | 30.32431 | -89.30119 | 16749 ft | 345 kts | 248° |
| 2026-05-01 14:27 | 30.31493 | -89.32613 | 16305 ft | 339 kts | 248° |
| 2026-05-01 14:28 | 30.29634 | -89.37547 | 15407 ft | 330 kts | 248° |
| 2026-05-01 14:28 | 30.28726 | -89.39978 | 14964 ft | 328 kts | 248° |
| 2026-05-01 14:28 | 30.27827 | -89.42399 | 14503 ft | 326 kts | 248° |
| 2026-05-01 14:28 | 30.26936 | -89.44807 | 14044 ft | 325 kts | 248° |
| 2026-05-01 14:29 | 30.26043 | -89.47212 | 13534 ft | 324 kts | 248° |
| 2026-05-01 14:29 | 30.25151 | -89.49612 | 13039 ft | 325 kts | 247° |
| 2026-05-01 14:30 | 30.22478 | -89.56770 | 11863 ft | 312 kts | 247° |
| 2026-05-01 14:30 | 30.21917 | -89.58276 | 11774 ft | 304 kts | 247° |
| 2026-05-01 14:30 | 30.21096 | -89.60475 | 11663 ft | 292 kts | 247° |
| 2026-05-01 14:31 | 30.19296 | -89.65290 | 11210 ft | 274 kts | 246° |
| 2026-05-01 14:31 | 30.18793 | -89.66659 | 11082 ft | 273 kts | 247° |
| 2026-05-01 14:31 | 30.18053 | -89.68687 | 11007 ft | 273 kts | 247° |
| 2026-05-01 14:31 | 30.17306 | -89.70710 | 11015 ft | 275 kts | 246° |
| 2026-05-01 14:32 | 30.16547 | -89.72737 | 11007 ft | 274 kts | 246° |
| 2026-05-01 14:32 | 30.15782 | -89.74755 | 11009 ft | 273 kts | 246° |
| 2026-05-01 14:32 | 30.15047 | -89.76708 | 11003 ft | 257 kts | 250° |
| 2026-05-01 14:32 | 30.14844 | -89.78654 | 11009 ft | 243 kts | 276° |
| 2026-05-01 14:33 | 30.15235 | -89.80533 | 11016 ft | 235 kts | 282° |
| 2026-05-01 14:33 | 30.15640 | -89.82345 | 11006 ft | 231 kts | 274° |
| 2026-05-01 14:33 | 30.15737 | -89.84184 | 10989 ft | 228 kts | 269° |
| 2026-05-01 14:33 | 30.15765 | -89.86005 | 10625 ft | 227 kts | 268° |
| 2026-05-01 14:34 | 30.15784 | -89.87838 | 10208 ft | 229 kts | 268° |
| 2026-05-01 14:34 | 30.15804 | -89.89685 | 9792 ft | 231 kts | 268° |
| 2026-05-01 14:34 | 30.15825 | -89.91516 | 9383 ft | 231 kts | 268° |
| 2026-05-01 14:34 | 30.15848 | -89.93372 | 8985 ft | 231 kts | 268° |
| 2026-05-01 14:35 | 30.15871 | -89.95218 | 8609 ft | 229 kts | 268° |
| 2026-05-01 14:35 | 30.15893 | -89.97055 | 8234 ft | 228 kts | 268° |
| 2026-05-01 14:35 | 30.15919 | -89.98886 | 7860 ft | 228 kts | 268° |
| 2026-05-01 14:35 | 30.15950 | -90.00713 | 7488 ft | 227 kts | 268° |
| 2026-05-01 14:36 | 30.15987 | -90.02530 | 7147 ft | 225 kts | 268° |
| 2026-05-01 14:36 | 30.16029 | -90.04332 | 6800 ft | 224 kts | 268° |
| 2026-05-01 14:36 | 30.16068 | -90.06128 | 6443 ft | 223 kts | 268° |
| 2026-05-01 14:36 | 30.16113 | -90.07919 | 6081 ft | 223 kts | 268° |
| 2026-05-01 14:37 | 30.16157 | -90.09704 | 5716 ft | 221 kts | 268° |
| 2026-05-01 14:37 | 30.16193 | -90.11474 | 5345 ft | 220 kts | 268° |
| 2026-05-01 14:37 | 30.16245 | -90.13233 | 4989 ft | 218 kts | 268° |
| 2026-05-01 14:37 | 30.16297 | -90.14970 | 4595 ft | 219 kts | 269° |
| 2026-05-01 14:38 | 30.16339 | -90.16749 | 4197 ft | 221 kts | 268° |
| 2026-05-01 14:38 | 30.16372 | -90.18512 | 4007 ft | 217 kts | 266° |
| 2026-05-01 14:38 | 30.16410 | -90.20240 | 4012 ft | 218 kts | 268° |
| 2026-05-01 14:38 | 30.16439 | -90.21992 | 4012 ft | 218 kts | 268° |
| 2026-05-01 14:39 | 30.16449 | -90.23757 | 4010 ft | 221 kts | 269° |
| 2026-05-01 14:39 | 30.16449 | -90.25535 | 4007 ft | 220 kts | 267° |
| 2026-05-01 14:39 | 30.16466 | -90.27306 | 4009 ft | 220 kts | 268° |
| 2026-05-01 14:39 | 30.16494 | -90.29064 | 4011 ft | 218 kts | 268° |
| 2026-05-01 14:40 | 30.16538 | -90.30798 | 3705 ft | 215 kts | 269° |
| 2026-05-01 14:40 | 30.16555 | -90.32542 | 3265 ft | 219 kts | 269° |
| 2026-05-01 14:40 | 30.16559 | -90.34292 | 2931 ft | 217 kts | 268° |
| 2026-05-01 14:40 | 30.16525 | -90.36010 | 2639 ft | 211 kts | 258° |
| 2026-05-01 14:41 | 30.15873 | -90.37474 | 2344 ft | 207 kts | 222° |
| 2026-05-01 14:41 | 30.14681 | -90.38424 | 2044 ft | 211 kts | 214° |
| 2026-05-01 14:41 | 30.13498 | -90.39469 | 2022 ft | 216 kts | 219° |
| 2026-05-01 14:41 | 30.12327 | -90.40572 | 2019 ft | 219 kts | 218° |
| 2026-05-01 14:42 | 30.11145 | -90.41700 | 2025 ft | 221 kts | 217° |
| 2026-05-01 14:42 | 30.09972 | -90.42833 | 2020 ft | 218 kts | 219° |
| 2026-05-01 14:42 | 30.08817 | -90.43927 | 2023 ft | 217 kts | 214° |
| 2026-05-01 14:42 | 30.07428 | -90.44515 | 2022 ft | 213 kts | 182° |
| 2026-05-01 14:43 | 30.05961 | -90.44420 | 2016 ft | 210 kts | 164° |
| 2026-05-01 14:43 | 30.04614 | -90.43787 | 2021 ft | 209 kts | 146° |
| 2026-05-01 14:43 | 30.03534 | -90.42705 | 2023 ft | 206 kts | 127° |
| 2026-05-01 14:43 | 30.02822 | -90.41283 | 2013 ft | 205 kts | 108° |
| 2026-05-01 14:44 | 30.02427 | -90.39713 | 1879 ft | 197 kts | 104° |
| 2026-05-01 14:44 | 30.01770 | -90.36954 | 1450 ft | 174 kts | 103° |
| 2026-05-01 14:44 | 30.01413 | -90.35454 | 1239 ft | 204 kts | 102° |
| 2026-05-01 14:45 | 30.01049 | -90.33944 | 1014 ft | 185 kts | 105° |
| 2026-05-01 14:45 | 30.00442 | -90.31428 | 575 ft | 145 kts | 101° |
| 2026-05-01 14:45 | 30.00177 | -90.30317 | 402 ft | 142 kts | 101° |
| 2026-05-01 14:46 | 29.99923 | -90.29236 | 225 ft | 140 kts | 103° |
| 2026-05-01 14:46 | 29.99407 | -90.27125 | 8 ft | 109 kts | 105° |
| 2026-05-01 14:46 | 29.99260 | -90.26499 | 10 ft | 55 kts | 105° |
| 2026-05-01 14:47 | 29.99184 | -90.26181 | 5 ft | 37 kts | 105° |
| 2026-05-01 14:47 | 29.99117 | -90.25908 | 10 ft | 33 kts | 105° |
| 2026-05-01 14:47 | 29.99069 | -90.25706 | 8 ft | 13 kts | 107° |
| 2026-05-01 14:48 | 29.99180 | -90.25620 | 7 ft | 8 kts | 13° |
| 2026-05-01 14:48 | 29.99206 | -90.25661 | 5 ft | 7 kts | 277° |
| 2026-05-01 14:48 | 29.99226 | -90.25783 | 4 ft | 7 kts | 283° |
| 2026-05-01 14:49 | 29.99288 | -90.25860 | 4 ft | 8 kts | 351° |
| 2026-05-01 14:49 | 29.99329 | -90.25811 | 4 ft | 3 kts | 77° |
| 2026-05-01 14:50 | 29.99333 | -90.25789 | 5 ft | 3 kts | 80° |
| 2026-05-01 14:50 | 29.99337 | -90.25767 | 6 ft | 1 kts | 79° |
| 2026-05-01 14:51 | 29.99337 | -90.25763 | 6 ft | 1 kts | 79° |
| 2026-05-01 14:51 | 29.99338 | -90.25761 | 6 ft | 0 kts | 79° |